Latest Coastal Weather Observations for Neptune Island

IDS60701

Issued at 8:41 am CDT Saturday 3 December 2016 (issued every 10 minutes, with the page automatically refreshed every 10 minutes)

About coastal observations | Map of coastal stations | Coastal observations for SA | Marine services | Other Formats
Station Details ID: 018115 Name: NEPTUNE ISLAND Lat: -35.34 Lon: 136.12 Height: 32.0 m
Data from the previous 72 hours. | See also: Recent months at Neptune Island
Date/Time
CDT
Temp
°C
Wind Pressure Rain since
9am
mm
Weather Cloud Vis
km
Sea
Height
m
Swell
Dir  Spd
kts
Gust
kts
hPa Trend Height
m
Period
s
Dir
03/08:30am 16.1 E 14 17 1013.9 - 0.0 - - - - - - -
03/08:00am 15.2 E 14 18 1013.8 - 0.0 - - - - - - -
03/07:30am 15.0 ESE 14 18 1013.8 - 0.0 - - - - - - -
03/07:00am 14.2 ESE 13 17 1013.7 - 0.0 - - - - - - -
03/06:30am 13.7 ESE 12 14 1013.8 - 0.0 - - - - - - -
03/06:00am 13.3 ESE 12 15 1013.6 - 0.0 - - - - - - -
03/05:30am 13.4 ESE 13 16 1013.3 - 0.0 - - - - - - -
03/05:00am 13.3 ESE 13 16 1013.1 - 0.0 - - - - - - -
03/04:30am 13.4 ESE 14 17 1012.9 - 0.0 - - - - - - -
03/04:00am 13.4 ESE 13 16 1013.2 - 0.0 - - - - - - -
03/03:30am 13.5 ESE 14 17 1013.4 - 0.0 - - - - - - -
03/03:00am 13.6 ESE 14 18 1013.4 - 0.0 - - - - - - -
03/02:30am 13.6 ESE 14 19 1013.7 - 0.0 - - - - - - -
03/02:00am 13.7 ESE 15 19 1013.9 - 0.0 - - - - - - -
03/01:30am 13.8 ESE 15 18 1014.0 - 0.0 - - - - - - -
03/01:00am 13.9 ESE 15 18 1014.2 - 0.0 - - - - - - -
03/12:30am 14.0 ESE 16 18 1014.7 - 0.0 - - - - - - -
03/12:00am 13.9 ESE 17 19 1014.7 - 0.0 - - - - - - -
 
Date/Time
CDT
Temp
°C
Wind Pressure Rain since
9am
mm
Weather Cloud Vis
km
Sea
Height
m
Swell
Dir  Spd
kts
Gust
kts
hPa Trend Height
m
Period
s
Dir
02/11:30pm 14.0 SE 17 21 1014.8 - 0.0 - - - - - - -
02/11:00pm 14.0 SE 18 22 1014.8 - 0.0 - - - - - - -
02/10:30pm 14.3 SE 19 22 1015.0 - 0.0 - - - - - - -
02/10:00pm 14.5 SSE 17 21 1015.1 - 0.0 - - - - - - -
02/09:30pm 14.4 SSE 18 21 1015.0 - 0.0 - - - - - - -
02/09:00pm 14.4 SSE 18 22 1014.9 - 0.0 - - - - - - -
02/08:30pm 14.6 SSE 19 23 1014.7 - 0.0 - - - - - - -
02/08:00pm 15.1 SSE 17 21 1014.9 - 0.0 - - - - - - -
02/07:30pm 15.3 S 17 20 1014.8 - 0.0 - - - - - - -
02/07:00pm 15.5 S 18 21 1014.6 - 0.0 - - - - - - -
02/06:30pm 16.1 S 18 21 1014.5 - 0.0 - - - - - - -
02/06:00pm 16.2 S 16 19 1014.5 - 0.0 - - - - - - -
02/05:30pm 16.3 S 15 18 1014.6 - 0.0 - - - - - - -
02/05:00pm 16.3 S 15 19 1014.7 - 0.0 - - - - - - -
02/04:30pm 17.5 S 16 19 1014.7 - 0.0 - - - - - - -
02/04:00pm 16.2 S 13 16 1014.8 - 0.0 - - - - - - -
02/03:30pm 16.6 SSW 14 17 1015.0 - 0.0 - - - - - - -
02/03:00pm 16.3 SSW 15 17 1015.0 - 0.0 - - - - - - -
02/02:30pm 16.9 S 13 16 1015.2 - 0.0 - - - - - - -
02/02:00pm 16.8 S 13 16 1015.4 - 0.0 - - - - - - -
02/01:30pm 17.2 S 12 15 1015.5 - 0.0 - - - - - - -
02/01:00pm 17.4 S 12 14 1015.4 - 0.0 - - - - - - -
02/12:30pm 17.6 S 12 14 1015.4 - 0.0 - - - - - - -
02/12:00pm 17.0 S 13 15 1015.4 - 0.0 - - - - - - -
02/11:30am 16.4 S 13 15 1015.3 - 0.0 - - - - - - -
02/11:00am 15.7 S 13 15 1015.0 - 0.0 - - - - - - -
02/10:30am 15.7 S 12 17 1015.0 - 0.0 - - - - - - -
02/10:00am 15.7 SSW 14 16 1014.7 - 0.0 - - - - - - -
02/09:30am 15.1 SSW 13 15 1014.7 - 0.0 - - - - - - -
02/09:00am 15.8 S 8 11 1014.6 - 0.0 - - - - - - -
02/08:30am 14.8 S 13 16 1014.2 - 0.0 - - - - - - -
02/08:00am 14.8 SSW 14 17 1013.9 - 0.0 - - - - - - -
02/07:30am 14.6 SSW 15 17 1013.4 - 0.0 - - - - - - -
02/07:00am 14.6 S 14 19 1013.1 - 0.0 - - - - - - -
02/06:30am 14.6 S 11 16 1012.6 - 0.0 - - - - - - -
02/06:00am 14.6 S 12 15 1012.4 - 0.0 - - - - - - -
02/05:30am 14.5 S 13 15 1012.2 - 0.0 - - - - - - -
02/05:00am 14.2 SSW 16 17 1011.6 - 0.0 - - - - - - -
02/04:30am 14.8 SSW 13 16 1011.5 - 0.0 - - - - - - -
02/04:00am 14.8 SSW 15 17 1011.3 - 0.0 - - - - - - -
02/03:30am 14.8 SSW 16 21 1011.2 - 0.0 - - - - - - -
02/03:00am 15.0 SSW 17 20 1010.9 - 0.0 - - - - - - -
02/02:30am 15.1 SSW 17 20 1010.5 - 0.0 - - - - - - -
02/02:00am 15.7 SW 17 21 1010.5 - 0.0 - - - - - - -
02/01:30am 15.7 SW 15 18 1010.4 - 0.0 - - - - - - -
02/01:00am 15.8 SW 15 18 1010.4 - 0.0 - - - - - - -
02/12:30am 15.7 SW 13 15 1010.5 - 0.0 - - - - - - -
02/12:00am 15.7 SW 13 15 1010.4 - 0.0 - - - - - - -
 
Date/Time
CDT
Temp
°C
Wind Pressure Rain since
9am
mm
Weather Cloud Vis
km
Sea
Height
m
Swell
Dir  Spd
kts
Gust
kts
hPa Trend Height
m
Period
s
Dir
01/11:30pm 15.8 SW 12 14 1010.4 - 0.0 - - - - - - -
01/11:00pm 15.8 SW 12 14 1010.4 - 0.0 - - - - - - -
01/10:30pm 15.8 SW 11 13 1010.4 - 0.0 - - - - - - -
01/10:00pm 15.9 SW 11 13 1010.3 - 0.0 - - - - - - -
01/09:30pm 16.0 SW 12 14 1010.0 - 0.0 - - - - - - -
01/09:00pm 16.2 SW 12 13 1009.8 - 0.0 - - - - - - -
01/08:30pm 16.1 SW 11 13 1009.5 - 0.0 - - - - - - -
01/08:00pm 16.6 SW 13 15 1009.3 - 0.0 - - - - - - -
01/07:30pm 17.2 SW 13 15 1009.1 - 0.0 - - - - - - -
01/07:00pm 16.8 SSW 11 13 1008.7 - 0.0 - - - - - - -
01/06:30pm 17.9 SW 15 18 1008.6 - 0.0 - - - - - - -
01/06:00pm 17.9 SW 16 19 1008.4 - 0.0 - - - - - - -
01/05:30pm 18.4 SW 18 22 1008.3 - 0.0 - - - - - - -
01/05:00pm 19.0 WSW 17 19 1008.4 - 0.0 - - - - - - -
01/04:30pm 18.4 SW 11 13 1008.5 - 0.0 - - - - - - -
01/04:00pm 18.6 SW 11 13 1008.6 - 0.0 - - - - - - -
01/03:30pm 18.8 WSW 8 10 1008.8 - 0.0 - - - - - - -
01/03:00pm 18.7 W 7 9 1009.0 - 0.0 - - - - - - -
01/02:30pm 18.5 W 7 8 1009.1 - 0.0 - - - - - - -
01/02:00pm 18.5 NW 7 9 1009.4 - 0.0 - - - - - - -
01/01:30pm 19.1 N 9 11 1009.0 - 0.0 - - - - - - -
01/01:00pm 17.5 NNE 10 12 1009.1 - 0.0 - - - - - - -
01/12:30pm 18.2 NNE 11 13 1009.4 - 0.0 - - - - - - -
01/12:00pm 17.7 NNE 11 14 1008.7 - 0.0 - - - - - - -
01/11:30am 16.9 N 13 15 1008.8 - 0.0 - - - - - - -
01/11:00am 16.5 NNE 12 14 1008.2 - 0.0 - - - - - - -
01/10:30am 16.2 NNE 11 13 1008.3 - 0.0 - - - - - - -
01/10:00am 16.0 NNE 10 12 1008.4 - 0.0 - - - - - - -
01/09:30am 16.2 NE 7 10 1008.8 - 0.0 - - - - - - -
01/09:00am 15.4 NE 6 9 1009.2 - 0.0 - - - - - - -
01/08:30am 15.5 NE 5 6 1009.5 - 0.0 - - - - - - -
01/08:00am 14.9 NE 5 6 1009.4 - 0.0 - - - - - - -
01/07:30am 14.7 ENE 5 6 1009.3 - 0.0 - - - - - - -
01/07:00am 14.3 E 5 6 1009.2 - 0.0 - - - - - - -
01/06:30am 13.7 E 5 6 1009.1 - 0.0 - - - - - - -
01/06:00am 13.7 E 6 8 1009.0 - 0.0 - - - - - - -
01/05:30am 13.9 ENE 5 7 1009.3 - 0.0 - - - - - - -
01/05:00am 13.9 E 6 7 1009.0 - 0.0 - - - - - - -
01/04:30am 13.9 E 6 7 1009.0 - 0.0 - - - - - - -
01/04:00am 14.2 E 9 11 1009.1 - 0.0 - - - - - - -
01/03:30am 14.2 ENE 10 13 1009.0 - 0.0 - - - - - - -
01/03:00am 14.2 ENE 11 13 1009.2 - 0.0 - - - - - - -
01/02:30am 14.3 E 9 11 1010.0 - 0.0 - - - - - - -
01/02:00am 14.3 E 12 15 1009.8 - 0.0 - - - - - - -
01/01:30am 14.4 E 14 17 1009.9 - 0.0 - - - - - - -
01/01:00am 14.3 E 11 14 1010.5 - 0.0 - - - - - - -
01/12:30am 14.4 ESE 11 13 1011.0 - 0.0 - - - - - - -
01/12:00am 14.2 ESE 11 13 1011.1 - 0.0 - - - - - - -
 
Date/Time
CDT
Temp
°C
Wind Pressure Rain since
9am
mm
Weather Cloud Vis
km
Sea
Height
m
Swell
Dir  Spd
kts
Gust
kts
hPa Trend Height
m
Period
s
Dir
30/11:30pm 14.4 ESE 14 16 1011.0 - 0.0 - - - - - - -
30/11:00pm 14.4 ESE 13 16 1011.4 - 0.0 - - - - - - -
30/10:30pm 14.6 SE 13 16 1011.8 - 0.0 - - - - - - -
30/10:00pm 14.8 SE 15 18 1011.7 - 0.0 - - - - - - -
30/09:30pm 14.9 SE 14 17 1011.8 - 0.0 - - - - - - -
30/09:00pm 14.9 SSE 14 17 1012.3 - 0.0 - - - - - - -
30/08:30pm 15.0 SSE 14 18 1012.1 - 0.0 - - - - - - -
30/08:00pm 15.3 SSE 15 18 1011.7 - 0.0 - - - - - - -
30/07:30pm 15.8 S 15 18 1012.0 - 0.0 - - - - - - -
30/07:00pm 16.0 S 15 18 1011.9 - 0.0 - - - - - - -
30/06:30pm 16.4 S 14 17 1011.7 - 0.0 - - - - - - -
30/06:00pm 17.1 S 16 18 1011.5 - 0.0 - - - - - - -
30/05:30pm 16.6 S 13 16 1011.8 - 0.0 - - - - - - -
30/05:00pm 17.2 S 14 16 1011.7 - 0.0 - - - - - - -
30/04:30pm 17.6 S 13 15 1011.8 - 0.0 - - - - - - -
30/04:00pm 17.7 S 13 17 1012.1 - 0.0 - - - - - - -
30/03:30pm 18.1 S 13 16 1012.0 - 0.0 - - - - - - -
30/03:00pm 18.2 S 15 17 1012.1 - 0.0 - - - - - - -
30/02:30pm 17.2 S 13 14 1012.5 - 0.0 - - - - - - -
30/02:00pm 17.4 SSW 11 13 1012.8 - 0.0 - - - - - - -
30/01:30pm 18.0 S 10 12 1013.1 - 0.0 - - - - - - -
30/01:00pm 18.7 S 9 11 1013.3 - 0.0 - - - - - - -
30/12:30pm 18.9 S 10 11 1013.3 - 0.0 - - - - - - -
30/12:00pm 17.9 SSE 9 11 1013.3 - 0.0 - - - - - - -
30/11:30am 18.6 SSE 9 11 1013.3 - 0.0 - - - - - - -
30/11:00am 18.4 SE 10 13 1013.2 - 0.0 - - - - - - -
30/10:30am 17.7 SE 12 15 1013.4 - 0.0 - - - - - - -
30/10:00am 17.0 SSE 12 15 1013.5 - 0.0 - - - - - - -
30/09:30am 16.5 SSE 12 16 1013.6 - 0.0 - - - - - - -
30/09:00am 16.1 SSE 13 16 1013.4 - 0.0 - - - - - - -

Other Formats:

Comma delimited format used in spreadsheet applications
http://www.bom.gov.au/fwo/IDS60701/IDS60701.94804.axf

JavaScript Object Notation format (JSON) in row-major order
http://www.bom.gov.au/fwo/IDS60701/IDS60701.94804.json